Time;durP1;ratioP1;P1;durP2;ratioP2;P2;SDS_P1;SDS_P2;PMS_P1;PMS_P2;Temp;Humidity;BMP_temperature;BMP_pressure;BME280_temperature;BME280_humidity;BME280_pressure;Samples;Min_cycle;Max_cycle;Signal;HPM_P1;HPM_P2
2021/03/17 00:01:06;;;;;;;4.73;4.30;;;5.90;99.90;;;;;;4938669;29;20476;-86
2021/03/17 00:03:33;;;;;;;4.27;3.87;;;5.90;99.90;;;;;;4937996;29;20492;-86
2021/03/17 00:05:59;;;;;;;5.27;4.77;;;5.90;99.90;;;;;;4937986;29;20534;-86
2021/03/17 00:08:30;;;;;;;4.83;4.33;;;5.90;99.90;;;;;;4937617;29;20889;-86
2021/03/17 00:10:56;;;;;;;4.67;4.27;;;5.90;99.90;;;;;;4959303;28;20487;-85
2021/03/17 00:13:24;;;;;;;4.60;4.17;;;5.90;99.90;;;;;;4946909;29;20484;-87
2021/03/17 00:15:52;;;;;;;4.27;3.77;;;6.00;99.90;;;;;;4938492;29;20550;-86
2021/03/17 00:18:19;;;;;;;4.37;4.00;;;6.00;99.90;;;;;;4937838;29;20536;-86
2021/03/17 00:20:45;;;;;;;5.13;4.63;;;6.00;99.90;;;;;;4936913;29;20454;-87
2021/03/17 00:23:12;;;;;;;5.60;4.77;;;6.00;99.90;;;;;;4938706;29;20521;-88
2021/03/17 00:25:40;;;;;;;5.43;4.50;;;6.00;99.90;;;;;;4939631;29;20960;-87
2021/03/17 00:28:07;;;;;;;5.20;4.50;;;6.00;99.90;;;;;;4937754;29;20434;-87
2021/03/17 00:30:34;;;;;;;5.40;4.90;;;6.00;99.90;;;;;;4945125;29;20457;-86
2021/03/17 00:33:02;;;;;;;5.77;5.27;;;5.90;99.90;;;;;;4939760;29;20452;-87
2021/03/17 00:35:30;;;;;;;5.90;4.77;;;5.90;99.90;;;;;;4937136;29;20551;-87
2021/03/17 00:37:56;;;;;;;5.00;4.50;;;5.90;99.90;;;;;;4939239;29;20461;-87
2021/03/17 00:40:24;;;;;;;5.63;5.13;;;5.90;99.90;;;;;;4939781;29;20456;-87
2021/03/17 00:42:51;;;;;;;6.00;5.40;;;5.90;99.90;;;;;;4948723;29;20473;-87
2021/03/17 00:45:17;;;;;;;5.00;4.50;;;5.90;99.90;;;;;;4959183;29;20480;-87
2021/03/17 00:47:44;;;;;;;6.53;5.47;;;6.00;99.90;;;;;;4952001;29;20461;-87
2021/03/17 00:50:13;;;;;;;5.50;5.00;;;5.90;99.90;;;;;;4951952;28;20449;-87
2021/03/17 00:52:40;;;;;;;6.10;5.50;;;5.90;99.90;;;;;;4937732;29;20468;-87
2021/03/17 00:55:08;;;;;;;5.00;4.60;;;5.90;99.90;;;;;;4936927;29;20912;-87
2021/03/17 00:57:34;;;;;;;5.80;4.70;;;5.90;99.90;;;;;;4937124;29;20452;-87
2021/03/17 01:00:00;;;;;;;5.77;5.20;;;5.90;99.90;;;;;;4951335;29;20469;-87
2021/03/17 01:02:26;;;;;;;5.90;5.30;;;5.90;99.90;;;;;;4953478;29;20474;-86
2021/03/17 01:04:53;;;;;;;5.83;5.17;;;6.00;99.90;;;;;;4942244;29;20462;-87
2021/03/17 01:07:20;;;;;;;5.00;4.50;;;6.00;99.90;;;;;;4957449;28;20481;-87
2021/03/17 01:09:47;;;;;;;5.63;4.83;;;6.00;99.90;;;;;;4953518;29;20453;-87
2021/03/17 01:12:14;;;;;;;7.20;5.17;;;5.90;99.90;;;;;;4941833;29;20469;-86
2021/03/17 01:14:41;;;;;;;5.73;5.20;;;5.90;99.90;;;;;;4954681;29;20484;-86
2021/03/17 01:17:08;;;;;;;6.33;4.87;;;6.00;99.90;;;;;;4942272;29;20525;-87
2021/03/17 01:19:35;;;;;;;5.17;4.77;;;5.90;99.90;;;;;;4937602;29;20987;-87
2021/03/17 01:22:01;;;;;;;6.27;5.27;;;5.90;99.90;;;;;;4936909;29;20509;-87
2021/03/17 01:24:29;;;;;;;6.30;4.80;;;5.90;99.90;;;;;;4936660;29;20532;-87
2021/03/17 01:26:56;;;;;;;5.53;5.03;;;5.80;99.90;;;;;;4936399;29;20595;-87
2021/03/17 01:29:22;;;;;;;6.80;6.10;;;5.80;99.90;;;;;;4948897;29;20453;-86
2021/03/17 01:31:49;;;;;;;6.57;5.23;;;5.80;99.90;;;;;;4942608;29;20444;-87
2021/03/17 01:34:15;;;;;;;6.50;4.90;;;5.70;99.90;;;;;;4942609;29;20474;-87
2021/03/17 01:36:41;;;;;;;5.80;5.20;;;5.70;99.90;;;;;;4960946;29;20454;-87
2021/03/17 01:39:08;;;;;;;7.47;6.47;;;5.70;99.90;;;;;;4954067;29;20520;-87
2021/03/17 01:41:35;;;;;;;5.83;5.23;;;5.60;99.90;;;;;;4950590;29;20484;-87
2021/03/17 01:44:04;;;;;;;6.63;5.93;;;5.60;99.90;;;;;;4940699;29;20575;-87
2021/03/17 01:46:33;;;;;;;5.63;5.13;;;5.70;99.90;;;;;;4946324;29;20473;-87
2021/03/17 01:49:04;;;;;;;7.00;6.10;;;5.60;99.90;;;;;;4948952;29;20457;-87
2021/03/17 01:51:33;;;;;;;5.73;5.23;;;5.60;99.90;;;;;;4945977;29;21057;-87
2021/03/17 01:54:07;;;;;;;5.60;4.87;;;5.70;99.90;;;;;;4940541;29;20478;-86
2021/03/17 01:56:36;;;;;;;6.07;5.30;;;5.70;99.90;;;;;;4957950;28;20462;-86
2021/03/17 01:59:05;;;;;;;6.20;5.60;;;5.60;99.90;;;;;;4948714;28;20961;-87
2021/03/17 02:01:35;;;;;;;6.17;5.57;;;5.70;99.90;;;;;;4941335;29;20473;-87
2021/03/17 02:04:07;;;;;;;6.53;5.93;;;5.60;99.90;;;;;;4940501;29;20493;-87
2021/03/17 02:06:37;;;;;;;5.70;4.93;;;5.60;99.90;;;;;;4953340;29;20433;-87
2021/03/17 02:09:06;;;;;;;5.30;4.80;;;5.60;99.90;;;;;;4941407;29;20853;-87
2021/03/17 02:11:39;;;;;;;6.43;4.70;;;5.60;99.90;;;;;;4940313;29;20436;-87
2021/03/17 02:14:34;;;;;;;5.17;4.67;;;5.60;99.90;;;;;;4940301;29;20538;-87
2021/03/17 02:17:08;;;;;;;5.50;4.90;;;5.60;99.90;;;;;;4940652;29;20461;-86
2021/03/17 02:20:06;;;;;;;5.30;4.80;;;5.60;99.90;;;;;;4940415;29;20479;-86
2021/03/17 02:22:40;;;;;;;4.03;3.73;;;5.60;99.90;;;;;;4931212;29;20495;-87
2021/03/17 02:25:17;;;;;;;4.40;3.87;;;5.70;99.90;;;;;;4939402;29;20525;-86
2021/03/17 02:28:08;;;;;;;4.47;4.07;;;5.60;99.90;;;;;;4938999;29;20448;-85
2021/03/17 02:31:08;;;;;;;5.20;4.37;;;5.70;99.90;;;;;;4944543;29;20447;-86
2021/03/17 02:33:45;;;;;;;4.17;3.77;;;5.60;99.90;;;;;;4949030;29;20470;-86
2021/03/17 02:36:15;;;;;;;4.73;4.30;;;5.70;99.90;;;;;;4940898;29;20452;-87
2021/03/17 02:38:46;;;;;;;4.93;4.33;;;5.60;99.90;;;;;;4939022;29;20457;-87
2021/03/17 02:41:18;;;;;;;4.43;4.03;;;5.70;99.90;;;;;;4948230;29;20410;-87
2021/03/17 02:43:47;;;;;;;3.83;3.53;;;5.60;99.90;;;;;;4959920;29;20495;-86
2021/03/17 02:46:16;;;;;;;6.23;5.50;;;5.70;99.90;;;;;;4945841;29;20464;-86
2021/03/17 02:48:46;;;;;;;4.93;4.50;;;5.60;99.90;;;;;;4948259;29;20452;-87
2021/03/17 02:51:22;;;;;;;5.90;4.30;;;5.70;99.90;;;;;;4939651;29;20457;-87
2021/03/17 02:53:50;;;;;;;4.67;4.17;;;5.70;99.90;;;;;;4938447;29;20506;-86
2021/03/17 02:56:16;;;;;;;4.73;4.30;;;5.70;99.90;;;;;;4938814;29;20465;-87
2021/03/17 02:58:45;;;;;;;4.80;4.40;;;5.70;99.90;;;;;;4938999;29;20507;-87
2021/03/17 03:01:14;;;;;;;4.97;4.47;;;5.70;99.90;;;;;;4938938;29;20454;-86
2021/03/17 03:03:42;;;;;;;5.10;4.37;;;5.70;99.90;;;;;;4943506;29;20528;-87
2021/03/17 03:06:11;;;;;;;4.20;3.80;;;5.60;99.90;;;;;;4955840;29;20434;-86
2021/03/17 03:08:40;;;;;;;4.30;3.70;;;5.50;99.90;;;;;;4961528;28;20426;-86
2021/03/17 03:11:08;;;;;;;3.97;3.60;;;5.50;99.90;;;;;;4961732;28;20466;-86
2021/03/17 03:13:37;;;;;;;4.27;3.90;;;5.60;99.90;;;;;;4960494;28;20530;-86
2021/03/17 03:16:05;;;;;;;3.30;3.00;;;5.50;99.90;;;;;;4956398;29;20459;-86
2021/03/17 03:18:34;;;;;;;3.90;3.50;;;5.50;99.90;;;;;;4957899;29;20463;-86
2021/03/17 03:21:06;;;;;;;4.40;4.00;;;5.50;99.90;;;;;;4956038;29;20445;-86
2021/03/17 03:23:34;;;;;;;5.00;4.07;;;5.50;99.90;;;;;;4953453;29;20489;-86
2021/03/17 03:26:02;;;;;;;4.10;3.70;;;5.40;99.90;;;;;;4939706;29;20452;-87
2021/03/17 03:28:30;;;;;;;4.37;3.97;;;5.40;99.90;;;;;;4942817;29;20464;-87
2021/03/17 03:30:57;;;;;;;3.97;3.67;;;5.30;99.90;;;;;;4938907;29;20899;-87
2021/03/17 03:33:23;;;;;;;4.10;3.80;;;5.40;99.90;;;;;;4938471;29;20454;-86
2021/03/17 03:35:50;;;;;;;4.40;4.00;;;5.40;99.90;;;;;;4937521;29;20463;-87
2021/03/17 03:38:18;;;;;;;4.70;3.90;;;5.50;99.90;;;;;;4938802;29;20440;-87
2021/03/17 03:40:46;;;;;;;4.63;4.23;;;5.40;99.90;;;;;;4958028;28;20437;-87
2021/03/17 03:43:13;;;;;;;4.60;4.20;;;5.50;99.90;;;;;;4944482;28;20493;-87
2021/03/17 03:45:41;;;;;;;5.23;4.77;;;5.50;99.90;;;;;;4939021;29;20440;-87
2021/03/17 03:48:08;;;;;;;5.20;4.70;;;5.50;99.90;;;;;;4945616;29;20454;-87
2021/03/17 03:50:38;;;;;;;5.10;4.60;;;5.40;99.90;;;;;;4945271;29;20461;-86
2021/03/17 03:53:13;;;;;;;5.33;4.83;;;5.40;99.90;;;;;;4956839;28;20456;-86
2021/03/17 03:55:50;;;;;;;4.90;4.50;;;5.40;99.90;;;;;;4957504;29;20518;-86
2021/03/17 03:58:24;;;;;;;5.83;5.23;;;5.40;99.90;;;;;;4952218;29;20471;-86
2021/03/17 04:00:52;;;;;;;6.27;5.67;;;5.40;99.90;;;;;;4942110;29;20441;-86
2021/03/17 04:03:21;;;;;;;5.97;5.23;;;5.30;99.90;;;;;;4951348;29;20499;-85
2021/03/17 04:05:52;;;;;;;5.63;5.10;;;5.30;99.90;;;;;;4958769;28;20440;-85
2021/03/17 04:08:19;;;;;;;5.53;4.90;;;5.20;99.90;;;;;;4954941;29;20452;-85
2021/03/17 04:10:53;;;;;;;5.40;4.90;;;5.20;99.90;;;;;;4941165;29;20953;-85
2021/03/17 04:13:22;;;;;;;5.90;5.40;;;5.10;99.90;;;;;;4957527;29;20466;-85
2021/03/17 04:15:49;;;;;;;5.53;5.03;;;5.10;99.90;;;;;;4948366;29;20457;-85
2021/03/17 04:18:18;;;;;;;5.37;4.87;;;5.20;99.90;;;;;;4939483;29;20454;-87
2021/03/17 04:20:46;;;;;;;5.60;5.10;;;5.20;99.90;;;;;;4938850;29;20442;-87
2021/03/17 04:23:14;;;;;;;5.90;5.40;;;5.30;99.90;;;;;;4937884;29;20485;-87
2021/03/17 04:25:44;;;;;;;6.90;5.80;;;5.30;99.90;;;;;;4937616;29;20469;-87
2021/03/17 04:28:15;;;;;;;14.40;5.77;;;5.30;99.90;;;;;;4938208;29;21095;-87
2021/03/17 04:30:42;;;;;;;5.70;5.20;;;5.30;99.90;;;;;;4937692;29;20451;-87
2021/03/17 04:33:10;;;;;;;9.43;7.63;;;5.40;99.90;;;;;;4937515;29;20449;-86
2021/03/17 04:35:37;;;;;;;6.97;6.27;;;5.40;99.90;;;;;;4937431;29;20907;-87
2021/03/17 04:38:05;;;;;;;6.43;5.93;;;5.40;99.90;;;;;;4941616;29;20460;-87
2021/03/17 04:40:35;;;;;;;7.97;7.17;;;5.40;99.90;;;;;;4955501;29;20467;-87
2021/03/17 04:43:01;;;;;;;7.27;6.57;;;5.50;99.90;;;;;;4945881;29;20508;-87
2021/03/17 04:45:28;;;;;;;8.00;7.30;;;5.50;99.90;;;;;;4937778;29;20470;-87
2021/03/17 04:47:55;;;;;;;7.97;7.17;;;5.50;99.90;;;;;;4937496;29;20816;-87
2021/03/17 04:50:26;;;;;;;7.47;6.77;;;5.50;99.90;;;;;;4937466;29;20465;-87
2021/03/17 04:52:53;;;;;;;7.80;6.63;;;5.50;99.90;;;;;;4939243;29;20456;-87
2021/03/17 04:58:11;;;;;;;7.50;6.80;;;5.50;99.90;;;;;;4903514;29;20837;-87
2021/03/17 05:00:41;;;;;;;8.63;7.73;;;5.50;99.90;;;;;;4939262;29;20532;-88
2021/03/17 05:03:20;;;;;;;8.20;7.40;;;5.50;99.90;;;;;;4939107;29;20492;-88
2021/03/17 05:05:52;;;;;;;8.40;7.60;;;5.40;99.90;;;;;;4944605;29;20465;-87
2021/03/17 05:08:23;;;;;;;8.23;7.43;;;5.40;99.90;;;;;;4940557;29;20545;-88
2021/03/17 05:10:55;;;;;;;8.93;7.80;;;5.40;99.90;;;;;;4941149;29;20935;-87
2021/03/17 05:13:25;;;;;;;11.43;8.03;;;5.40;99.90;;;;;;4950324;29;20442;-88
2021/03/17 05:15:58;;;;;;;8.73;7.93;;;5.50;99.90;;;;;;4961511;28;20445;-88
2021/03/17 05:18:30;;;;;;;9.50;8.33;;;5.50;99.90;;;;;;4950403;29;20504;-87
2021/03/17 05:20:58;;;;;;;8.87;8.07;;;5.40;99.90;;;;;;4959291;23;20536;-83
2021/03/17 05:23:24;;;;;;;9.63;8.73;;;5.40;99.90;;;;;;4997932;28;20539;-83
2021/03/17 05:25:52;;;;;;;10.30;9.40;;;5.50;99.90;;;;;;4981541;28;20448;-83
2021/03/17 05:28:19;;;;;;;9.80;8.90;;;5.50;99.90;;;;;;4981075;28;20455;-84
2021/03/17 05:30:49;;;;;;;10.33;9.43;;;5.50;99.90;;;;;;4979033;28;20454;-84
2021/03/17 05:33:17;;;;;;;11.60;10.50;;;5.50;99.90;;;;;;4976678;28;20460;-83
2021/03/17 05:35:44;;;;;;;12.27;10.17;;;5.50;99.90;;;;;;4978570;28;20455;-85
2021/03/17 05:38:10;;;;;;;10.47;9.40;;;5.50;99.90;;;;;;4978613;29;20423;-85
2021/03/17 05:40:37;;;;;;;11.60;10.50;;;5.40;99.90;;;;;;4979216;28;20720;-84
2021/03/17 05:43:05;;;;;;;11.43;10.23;;;5.50;99.90;;;;;;4978486;28;20480;-84
2021/03/17 05:45:34;;;;;;;11.03;9.93;;;5.50;99.90;;;;;;4977807;29;20441;-85
2021/03/17 05:48:02;;;;;;;13.80;12.37;;;5.50;99.90;;;;;;4975112;29;20432;-85
2021/03/17 05:50:29;;;;;;;12.10;10.90;;;5.50;99.90;;;;;;4979090;29;20445;-85
2021/03/17 05:52:57;;;;;;;12.90;11.60;;;5.50;99.90;;;;;;4977271;28;20528;-84
2021/03/17 05:55:23;;;;;;;13.67;12.20;;;5.50;99.90;;;;;;4976679;29;20452;-84
2021/03/17 05:57:50;;;;;;;14.97;13.47;;;5.50;99.90;;;;;;4976623;29;20445;-85
2021/03/17 06:00:19;;;;;;;14.10;12.30;;;5.50;99.90;;;;;;4969760;29;20631;-84
2021/03/17 06:02:45;;;;;;;15.33;13.80;;;5.60;99.90;;;;;;4960154;28;20579;-84
2021/03/17 06:05:12;;;;;;;14.47;12.47;;;5.60;99.90;;;;;;4960198;29;20460;-84
2021/03/17 06:07:45;;;;;;;15.67;13.90;;;5.60;99.90;;;;;;4959463;29;20445;-85
2021/03/17 06:10:13;;;;;;;15.90;14.10;;;5.50;99.90;;;;;;4958935;29;20445;-85
2021/03/17 06:12:40;;;;;;;15.50;13.67;;;5.60;99.90;;;;;;4971410;28;20480;-85
2021/03/17 06:15:07;;;;;;;15.07;13.50;;;5.50;99.90;;;;;;4964289;28;20451;-83
2021/03/17 06:17:35;;;;;;;17.70;14.83;;;5.50;99.90;;;;;;4967306;28;20493;-84
2021/03/17 06:20:06;;;;;;;15.03;13.43;;;5.40;99.90;;;;;;4966306;28;20468;-84
2021/03/17 06:22:34;;;;;;;16.70;14.93;;;5.40;99.90;;;;;;4962101;28;20493;-84
2021/03/17 06:25:03;;;;;;;17.50;14.93;;;5.40;99.90;;;;;;4959386;28;20449;-84
2021/03/17 06:27:30;;;;;;;18.83;14.93;;;5.40;99.90;;;;;;4965424;28;20451;-85
2021/03/17 06:29:58;;;;;;;15.70;14.00;;;5.40;99.90;;;;;;4966023;28;20437;-85
2021/03/17 06:32:26;;;;;;;15.40;13.70;;;5.30;99.90;;;;;;4967988;28;20467;-84
2021/03/17 06:34:52;;;;;;;17.83;15.00;;;5.30;99.90;;;;;;4965675;28;20453;-84
2021/03/17 06:37:33;;;;;;;16.03;14.23;;;5.40;99.90;;;;;;4969558;28;20846;-84
2021/03/17 06:40:00;;;;;;;16.47;13.77;;;5.40;99.90;;;;;;4984752;28;20440;-84
2021/03/17 06:42:38;;;;;;;17.40;13.83;;;5.40;99.90;;;;;;4978708;28;20467;-84
2021/03/17 06:45:06;;;;;;;19.40;14.80;;;5.40;99.90;;;;;;4967782;28;20449;-85
2021/03/17 06:47:32;;;;;;;17.77;15.33;;;5.50;99.90;;;;;;4957192;29;20443;-85
2021/03/17 06:49:58;;;;;;;21.10;15.67;;;5.50;99.90;;;;;;4963701;29;20525;-85
2021/03/17 06:52:29;;;;;;;18.00;14.60;;;5.50;99.90;;;;;;4978966;28;20471;-84
2021/03/17 06:55:16;;;;;;;18.13;16.23;;;5.60;99.90;;;;;;4972694;28;20523;-85
2021/03/17 06:57:46;;;;;;;18.07;16.20;;;5.60;99.90;;;;;;4972160;29;20449;-85
2021/03/17 07:00:18;;;;;;;16.70;14.67;;;5.60;99.90;;;;;;4971329;28;20490;-85
2021/03/17 07:02:50;;;;;;;20.20;17.03;;;5.60;99.90;;;;;;4958126;28;20489;-84
2021/03/17 07:05:17;;;;;;;17.57;15.43;;;5.60;99.90;;;;;;4969844;29;20482;-83
2021/03/17 07:07:51;;;;;;;19.77;15.67;;;5.60;99.90;;;;;;4967974;29;20445;-84
2021/03/17 07:10:32;;;;;;;19.13;16.00;;;5.70;99.90;;;;;;4962396;29;20464;-84
2021/03/17 07:13:00;;;;;;;17.37;15.57;;;5.80;99.90;;;;;;4960498;28;20490;-84
2021/03/17 07:15:26;;;;;;;18.70;16.80;;;5.90;99.90;;;;;;4958080;29;20459;-85
2021/03/17 07:18:12;;;;;;;18.27;16.37;;;6.00;99.90;;;;;;4956940;29;20744;-85
2021/03/17 07:20:43;;;;;;;18.87;16.23;;;6.10;99.90;;;;;;4957231;29;20475;-85
2021/03/17 07:23:33;;;;;;;20.23;16.63;;;6.20;99.90;;;;;;4956927;28;20492;-84
2021/03/17 07:26:12;;;;;;;16.73;14.67;;;6.30;99.90;;;;;;4956766;28;20452;-84
2021/03/17 07:29:13;;;;;;;17.77;15.97;;;6.40;99.90;;;;;;4956525;29;20452;-85
2021/03/17 07:31:48;;;;;;;18.10;13.80;;;6.60;99.90;;;;;;4963503;28;21052;-84
2021/03/17 07:34:20;;;;;;;16.13;14.43;;;6.70;99.90;;;;;;4976751;28;20480;-84
2021/03/17 07:36:48;;;;;;;21.50;14.80;;;6.80;99.90;;;;;;4964651;29;20515;-84
2021/03/17 07:39:23;;;;;;;19.50;15.77;;;6.90;99.90;;;;;;4963955;29;20464;-84
2021/03/17 07:41:51;;;;;;;19.10;15.23;;;7.00;99.90;;;;;;4962840;28;20475;-85
2021/03/17 07:44:18;;;;;;;16.60;14.90;;;7.10;99.90;;;;;;4965277;29;20493;-84
2021/03/17 07:46:48;;;;;;;16.33;14.60;;;7.30;99.90;;;;;;4957325;29;20540;-84
2021/03/17 07:49:15;;;;;;;15.57;13.97;;;7.40;99.90;;;;;;4956468;29;20483;-84
2021/03/17 07:51:46;;;;;;;14.87;13.30;;;7.50;99.90;;;;;;4956843;28;20476;-85
2021/03/17 07:54:19;;;;;;;17.77;14.83;;;7.50;99.90;;;;;;4956489;29;20453;-84
2021/03/17 07:56:48;;;;;;;16.63;14.87;;;7.60;99.90;;;;;;4956326;29;20449;-85
2021/03/17 07:59:15;;;;;;;15.60;13.90;;;7.60;99.90;;;;;;4969525;29;20468;-84
2021/03/17 08:01:43;;;;;;;17.87;14.90;;;7.60;99.90;;;;;;4976668;28;20461;-84
2021/03/17 08:04:10;;;;;;;17.80;13.80;;;7.70;99.90;;;;;;4976600;29;20497;-84
2021/03/17 08:06:37;;;;;;;16.77;14.90;;;7.70;99.90;;;;;;4975867;29;20445;-84
2021/03/17 08:09:03;;;;;;;17.40;13.30;;;7.80;99.90;;;;;;4969016;29;20425;-84
2021/03/17 08:11:30;;;;;;;13.77;12.37;;;7.90;99.90;;;;;;4960421;28;20527;-85
2021/03/17 08:13:57;;;;;;;14.07;11.40;;;7.90;99.90;;;;;;4959437;29;20456;-84
2021/03/17 08:16:27;;;;;;;16.40;14.90;;;7.90;99.90;;;;;;4957160;29;20456;-84
2021/03/17 08:18:55;;;;;;;13.67;12.00;;;8.00;99.90;;;;;;4956427;29;20536;-85
2021/03/17 08:21:44;;;;;;;16.53;12.13;;;8.20;99.90;;;;;;4965103;28;20483;-85
2021/03/17 08:24:11;;;;;;;12.70;11.37;;;9.10;99.90;;;;;;4957028;29;21139;-84
2021/03/17 08:26:45;;;;;;;13.33;11.50;;;9.80;99.20;;;;;;4955561;29;20519;-85
2021/03/17 08:29:15;;;;;;;13.63;11.60;;;10.90;97.00;;;;;;4955969;29;20539;-85
2021/03/17 08:31:50;;;;;;;12.30;11.07;;;11.60;94.30;;;;;;4955763;28;20475;-85
2021/03/17 08:34:29;;;;;;;12.37;11.17;;;12.40;92.30;;;;;;4955458;29;20448;-84
2021/03/17 08:36:57;;;;;;;13.83;12.40;;;12.60;91.10;;;;;;4955879;28;20961;-84
2021/03/17 08:39:56;;;;;;;13.87;12.47;;;13.30;90.60;;;;;;4958758;29;20457;-85
2021/03/17 08:42:30;;;;;;;12.90;11.70;;;13.60;87.00;;;;;;4959378;28;20464;-85
2021/03/17 08:44:59;;;;;;;13.03;11.73;;;13.30;85.70;;;;;;4958723;29;20454;-85
2021/03/17 08:47:28;;;;;;;13.27;12.10;;;13.60;85.60;;;;;;4959071;29;20481;-86
2021/03/17 08:49:58;;;;;;;12.03;9.87;;;14.60;83.10;;;;;;4959170;29;20460;-85
2021/03/17 08:52:37;;;;;;;11.03;9.90;;;16.20;79.00;;;;;;4959810;29;20855;-90
2021/03/17 08:55:12;;;;;;;10.07;9.07;;;17.30;71.60;;;;;;4967011;28;20455;-88
2021/03/17 08:58:01;;;;;;;11.03;9.90;;;17.90;68.10;;;;;;4958463;28;20453;-89
2021/03/17 09:00:56;;;;;;;10.73;9.43;;;17.50;65.00;;;;;;4959092;29;20484;-89
2021/03/17 09:03:44;;;;;;;10.60;9.60;;;17.70;65.20;;;;;;4960567;29;20476;-89
2021/03/17 09:06:15;;;;;;;10.10;9.10;;;17.30;64.80;;;;;;4965871;29;20516;-89
2021/03/17 09:08:53;;;;;;;8.50;7.50;;;17.30;64.90;;;;;;4955369;29;20440;-89
2021/03/17 09:11:49;;;;;;;8.00;7.20;;;17.90;60.00;;;;;;4959851;28;20555;-90
2021/03/17 09:14:21;;;;;;;8.13;7.33;;;17.80;58.30;;;;;;4959125;29;20465;-90
2021/03/17 09:17:23;;;;;;;6.83;6.10;;;16.30;60.00;;;;;;4962971;29;20457;-84
2021/03/17 09:20:08;;;;;;;7.50;6.40;;;14.90;59.50;;;;;;4975182;29;20447;-84
2021/03/17 09:32:26;;;;;;;5.73;5.33;;;19.30;52.20;;;;;;4897548;29;20474;-87
2021/03/17 09:35:49;;;;;;;6.63;6.03;;;19.00;52.10;;;;;;4848317;29;20554;-87
2021/03/17 09:51:09;;;;;;;5.83;5.23;;;14.60;59.20;;;;;;4788254;29;20828;-85
2021/03/17 10:00:25;;;;;;;5.60;4.63;;;16.70;56.80;;;;;;4795854;29;20471;-86
2021/03/17 10:02:51;;;;;;;6.37;5.13;;;15.30;56.00;;;;;;4925919;23;20488;-84
2021/03/17 10:05:17;;;;;;;7.17;5.17;;;14.70;57.80;;;;;;4978505;28;20440;-84
2021/03/17 10:07:44;;;;;;;5.30;4.80;;;15.10;58.40;;;;;;4978851;28;20452;-84
2021/03/17 10:10:11;;;;;;;6.60;5.90;;;15.80;57.30;;;;;;4978487;28;20507;-84
2021/03/17 10:12:38;;;;;;;6.40;4.80;;;15.70;57.00;;;;;;4978483;28;20480;-84
2021/03/17 10:15:08;;;;;;;5.67;5.17;;;15.00;56.90;;;;;;4983387;28;20449;-84
2021/03/17 10:17:35;;;;;;;6.27;4.27;;;14.50;57.40;;;;;;4997912;28;20452;-85
2021/03/17 10:20:06;;;;;;;5.83;4.90;;;14.00;58.10;;;;;;4987221;28;20800;-84
2021/03/17 10:22:32;;;;;;;6.17;5.57;;;13.50;59.50;;;;;;4997574;28;20534;-84
2021/03/17 10:25:00;;;;;;;6.83;4.80;;;13.20;60.10;;;;;;4986950;28;20485;-84
2021/03/17 10:27:31;;;;;;;6.93;5.23;;;13.00;61.40;;;;;;4980452;28;20444;-85
2021/03/17 10:30:03;;;;;;;6.13;5.53;;;12.70;62.90;;;;;;4980518;28;20438;-84
2021/03/17 10:32:30;;;;;;;7.90;5.47;;;12.60;63.40;;;;;;4978869;28;20538;-85
2021/03/17 10:34:56;;;;;;;5.87;5.20;;;11.80;62.80;;;;;;4979053;28;20619;-84
2021/03/17 10:37:23;;;;;;;6.70;4.60;;;11.40;64.40;;;;;;4976819;28;21034;-84
2021/03/17 10:39:51;;;;;;;6.60;5.77;;;11.90;66.90;;;;;;4978144;28;20451;-84
2021/03/17 10:42:19;;;;;;;5.70;5.20;;;12.40;66.30;;;;;;4976722;28;20841;-84
2021/03/17 10:45:01;;;;;;;6.50;5.70;;;13.10;65.10;;;;;;4977142;28;20966;-84
2021/03/17 10:47:27;;;;;;;7.57;6.07;;;12.40;62.60;;;;;;4977144;28;20452;-84
2021/03/17 11:02:50;;;;;;;5.87;5.10;;;10.20;71.40;;;;;;4961372;28;20499;-86
2021/03/17 11:09:19;;;;;;;5.90;5.17;;;9.80;76.40;;;;;;4862987;29;20458;-86
2021/03/17 11:31:48;;;;;;;9.57;7.50;;;7.10;92.00;;;;;;4803241;29;20791;-84
2021/03/17 11:34:32;;;;;;;8.30;6.80;;;7.00;93.20;;;;;;4839247;29;20482;-87
2021/03/17 11:36:59;;;;;;;7.43;6.70;;;7.00;93.40;;;;;;4935569;23;20499;-85
2021/03/17 11:39:26;;;;;;;9.50;8.40;;;6.80;93.40;;;;;;4974112;28;20960;-86
2021/03/17 11:41:53;;;;;;;8.97;7.03;;;6.90;93.60;;;;;;4975586;28;20452;-84
2021/03/17 11:44:21;;;;;;;7.90;7.10;;;6.90;93.30;;;;;;4978910;28;20467;-84
2021/03/17 11:46:48;;;;;;;8.50;6.70;;;7.00;94.10;;;;;;4995006;28;20455;-84
2021/03/17 11:49:15;;;;;;;8.93;7.10;;;7.00;94.20;;;;;;4976948;28;20944;-85
2021/03/17 11:51:58;;;;;;;;;;;;;;;;;;;;;
2021/03/17 11:54:55;;;;;;;8.70;7.47;;;7.20;95.20;;;;;;4943124;29;20485;-86
2021/03/17 12:04:03;;;;;;;11.43;8.13;;;7.10;96.70;;;;;;4929709;28;20500;-87
2021/03/17 12:07:09;;;;;;;10.30;7.87;;;6.90;97.30;;;;;;4876350;29;20461;-85
2021/03/17 12:20:01;;;;;;;13.53;10.10;;;6.60;99.90;;;;;;4785739;30;20508;-86
2021/03/17 12:33:01;;;;;;;12.90;7.80;;;6.50;99.90;;;;;;4744779;30;20457;-87
2021/03/17 12:35:28;;;;;;;11.70;7.33;;;6.50;99.90;;;;;;4864454;23;20511;-83
2021/03/17 12:37:55;;;;;;;11.33;9.50;;;6.40;99.90;;;;;;4995898;28;20432;-84
2021/03/17 12:40:23;;;;;;;12.30;9.50;;;6.50;99.90;;;;;;4995708;28;20487;-83
2021/03/17 12:42:50;;;;;;;10.30;7.77;;;6.40;99.90;;;;;;4997529;28;20432;-83
2021/03/17 12:45:19;;;;;;;8.10;7.30;;;6.50;99.90;;;;;;4992818;28;20448;-83
2021/03/17 12:47:46;;;;;;;8.57;7.60;;;6.40;99.90;;;;;;4980864;28;20532;-84
2021/03/17 12:50:14;;;;;;;10.43;8.67;;;6.30;99.90;;;;;;4977561;28;20448;-83
2021/03/17 12:52:41;;;;;;;11.63;9.63;;;6.20;99.90;;;;;;4978506;28;20448;-83
2021/03/17 12:55:09;;;;;;;11.20;9.30;;;6.20;99.90;;;;;;4975926;28;20479;-83
2021/03/17 12:57:36;;;;;;;10.13;8.60;;;6.20;99.90;;;;;;4975330;28;20813;-84
2021/03/17 13:00:04;;;;;;;12.80;9.50;;;6.20;99.90;;;;;;4975565;28;20518;-83
2021/03/17 13:02:30;;;;;;;10.37;8.23;;;6.10;99.90;;;;;;4974633;28;20444;-84
2021/03/17 13:04:57;;;;;;;12.67;9.30;;;6.20;99.90;;;;;;4974427;28;20459;-83
2021/03/17 13:07:23;;;;;;;12.03;8.70;;;6.10;99.90;;;;;;4976917;28;20454;-84
2021/03/17 13:09:49;;;;;;;13.27;8.87;;;6.10;99.90;;;;;;4985166;28;20440;-83
2021/03/17 13:12:16;;;;;;;11.67;8.70;;;6.10;99.90;;;;;;4992415;28;20448;-85
2021/03/17 13:14:43;;;;;;;11.73;9.07;;;6.00;99.90;;;;;;4991670;28;20491;-84
2021/03/17 13:17:09;;;;;;;13.20;9.40;;;5.90;99.90;;;;;;4977697;28;20479;-84
2021/03/17 13:19:35;;;;;;;12.57;8.90;;;5.90;99.90;;;;;;4989109;28;20440;-84
2021/03/17 13:22:01;;;;;;;10.80;9.20;;;5.80;99.90;;;;;;4993213;28;20511;-85
2021/03/17 13:24:27;;;;;;;11.63;10.40;;;5.80;99.90;;;;;;4982867;28;20524;-85
2021/03/17 13:26:54;;;;;;;11.60;10.17;;;5.80;99.90;;;;;;4982206;28;20472;-85
2021/03/17 13:29:21;;;;;;;11.00;9.73;;;5.80;99.90;;;;;;4981583;28;20471;-84
2021/03/17 13:31:47;;;;;;;10.13;9.13;;;6.00;99.90;;;;;;4981024;28;20455;-84
2021/03/17 13:34:13;;;;;;;11.93;9.30;;;6.20;99.90;;;;;;4984264;28;20506;-84
2021/03/17 13:36:40;;;;;;;10.93;9.50;;;6.40;99.90;;;;;;4997111;28;20479;-84
2021/03/17 13:39:08;;;;;;;11.40;9.50;;;6.60;99.90;;;;;;4983484;28;20506;-84
2021/03/17 13:41:35;;;;;;;10.77;9.63;;;6.70;99.90;;;;;;4980906;28;20451;-84
2021/03/17 13:44:01;;;;;;;12.27;9.50;;;7.00;99.90;;;;;;4978744;28;20443;-85
2021/03/17 13:46:28;;;;;;;8.53;7.63;;;7.10;99.90;;;;;;4977861;28;20464;-85
2021/03/17 13:48:55;;;;;;;10.00;8.93;;;7.00;99.90;;;;;;4976767;28;20988;-85
2021/03/17 13:51:21;;;;;;;12.47;8.77;;;7.50;99.90;;;;;;4977266;28;20479;-85
2021/03/17 13:53:48;;;;;;;9.10;8.20;;;8.20;99.90;;;;;;4977787;28;20487;-85
2021/03/17 13:56:15;;;;;;;11.33;9.30;;;8.30;99.90;;;;;;4977658;28;20463;-85
2021/03/17 13:58:41;;;;;;;8.87;7.93;;;8.20;99.90;;;;;;4977254;28;20454;-85
2021/03/17 14:01:07;;;;;;;10.23;9.23;;;8.30;99.90;;;;;;4979926;28;20444;-85
2021/03/17 14:03:35;;;;;;;10.50;8.97;;;8.40;99.90;;;;;;4979051;28;20463;-85
2021/03/17 14:06:01;;;;;;;10.97;9.87;;;8.50;99.00;;;;;;4978060;28;20464;-85
2021/03/17 14:08:27;;;;;;;13.80;10.53;;;8.60;98.40;;;;;;4977995;28;20459;-85
2021/03/17 14:10:53;;;;;;;11.53;10.30;;;8.70;99.00;;;;;;4982208;28;20444;-85
2021/03/17 14:13:20;;;;;;;13.40;11.00;;;9.30;98.80;;;;;;4977587;28;20981;-85
2021/03/17 14:15:46;;;;;;;12.07;10.90;;;9.50;97.60;;;;;;4977882;28;20526;-85
2021/03/17 14:18:14;;;;;;;13.57;12.00;;;9.30;97.60;;;;;;4976694;28;20452;-86
2021/03/17 14:20:41;;;;;;;13.47;11.37;;;8.90;97.40;;;;;;4994943;28;20440;-85
2021/03/17 14:23:07;;;;;;;13.53;11.83;;;8.90;98.10;;;;;;4996517;28;20458;-85
2021/03/17 14:25:36;;;;;;;15.00;11.83;;;8.80;98.10;;;;;;4978631;28;20980;-86
2021/03/17 14:28:03;;;;;;;12.50;10.10;;;8.70;98.40;;;;;;4976507;28;20802;-86
2021/03/17 14:30:31;;;;;;;11.10;9.33;;;8.70;98.60;;;;;;4978070;28;20459;-85
2021/03/17 14:32:57;;;;;;;10.23;9.23;;;8.70;98.10;;;;;;4976616;28;20456;-85
2021/03/17 14:35:23;;;;;;;10.40;9.20;;;8.70;97.80;;;;;;4979620;28;20492;-85
2021/03/17 14:43:35;;;;;;;8.97;7.83;;;9.10;96.90;;;;;;4977919;28;20468;-85
2021/03/17 14:46:19;;;;;;;8.87;7.97;;;9.20;97.10;;;;;;4978867;28;20520;-85
2021/03/17 14:52:07;;;;;;;9.63;8.73;;;10.00;95.50;;;;;;4974807;28;20424;-87